createdAt,value
2022-12-01T00:01:29.899Z,9.52
2022-12-01T00:03:57.334Z,13.25
2022-12-01T00:06:24.508Z,8.30
2022-12-01T00:09:15.206Z,8.13
2022-12-01T00:11:45.443Z,8.90
2022-12-01T00:14:12.875Z,7.75
2022-12-01T00:16:41.279Z,21.33
2022-12-01T00:19:08.930Z,19.35
2022-12-01T00:21:36.369Z,14.75
2022-12-01T00:24:03.767Z,9.93
2022-12-01T00:26:30.965Z,7.43
2022-12-01T00:29:00.072Z,8.70
2022-12-01T00:31:28.274Z,10.35
2022-12-01T00:33:56.163Z,9.88
2022-12-01T00:38:56.835Z,6.20
2022-12-01T00:41:25.771Z,6.90
2022-12-01T00:43:53.419Z,7.97
2022-12-01T00:46:20.746Z,8.13
2022-12-01T00:48:48.660Z,6.07
2022-12-01T00:51:15.979Z,8.05
2022-12-01T00:53:43.316Z,6.47
2022-12-01T00:56:10.716Z,6.75
2022-12-01T00:58:37.940Z,6.97
2022-12-01T01:01:05.511Z,9.98
2022-12-01T01:03:34.246Z,8.82
2022-12-01T01:06:12.638Z,7.35
2022-12-01T01:08:41.305Z,6.75
2022-12-01T01:11:10.054Z,9.02
2022-12-01T01:13:38.160Z,8.15
2022-12-01T01:16:17.207Z,7.55
2022-12-01T01:18:45.116Z,7.88
2022-12-01T01:23:45.744Z,6.82
2022-12-01T01:26:21.203Z,6.22
2022-12-01T01:28:49.924Z,7.35
2022-12-01T01:31:23.088Z,9.85
2022-12-01T01:33:51.004Z,11.20
2022-12-01T01:36:19.580Z,11.93
2022-12-01T01:38:47.722Z,8.75
2022-12-01T01:41:15.259Z,7.70
2022-12-01T01:43:47.082Z,9.10
2022-12-01T01:46:20.423Z,6.75
2022-12-01T01:49:01.770Z,7.85
2022-12-01T01:51:52.952Z,7.45
2022-12-01T01:54:28.300Z,8.23
2022-12-01T01:57:00.366Z,9.48
2022-12-01T01:59:36.212Z,10.48
2022-12-01T02:02:07.625Z,9.35
2022-12-01T02:04:42.451Z,8.82
2022-12-01T02:07:12.339Z,9.43
2022-12-01T02:09:39.619Z,10.75
2022-12-01T02:12:34.507Z,8.82
2022-12-01T02:15:18.935Z,8.82
2022-12-01T02:18:03.693Z,7.00
2022-12-01T02:21:11.032Z,6.85
2022-12-01T02:24:24.610Z,8.70
2022-12-01T02:27:19.877Z,6.90
2022-12-01T02:30:18.420Z,7.60
2022-12-01T02:33:15.689Z,8.02
2022-12-01T02:35:54.826Z,7.53
2022-12-01T02:38:38.910Z,10.68
2022-12-01T02:41:25.790Z,12.07
2022-12-01T02:44:25.763Z,12.13
2022-12-01T02:47:03.951Z,10.35
2022-12-01T02:49:43.238Z,11.80
2022-12-01T02:52:14.096Z,11.32
2022-12-01T02:54:45.993Z,9.48
2022-12-01T02:57:15.379Z,10.63
2022-12-01T02:59:53.506Z,10.20
2022-12-01T03:02:43.807Z,10.32
2022-12-01T03:05:34.061Z,9.55
2022-12-01T03:08:05.860Z,10.38
2022-12-01T03:10:58.005Z,10.43
2022-12-01T03:13:52.953Z,8.90
2022-12-01T03:16:53.394Z,8.55
2022-12-01T03:20:14.923Z,6.95
2022-12-01T03:22:55.857Z,7.82
2022-12-01T03:25:26.578Z,6.88
2022-12-01T03:28:20.161Z,9.02
2022-12-01T03:30:46.923Z,8.75
2022-12-01T03:33:24.165Z,10.63
2022-12-01T03:36:02.187Z,8.55
2022-12-01T03:38:32.110Z,11.93
2022-12-01T03:41:11.009Z,8.63
2022-12-01T03:43:44.394Z,11.70
2022-12-01T03:46:47.567Z,9.68
2022-12-01T03:49:18.641Z,9.90
2022-12-01T03:52:00.803Z,10.32
2022-12-01T03:55:04.705Z,9.52
2022-12-01T03:57:55.862Z,10.63
2022-12-01T04:00:24.171Z,8.23
2022-12-01T04:03:02.351Z,10.90
2022-12-01T04:05:30.892Z,8.70
2022-12-01T04:07:58.676Z,10.63
2022-12-01T04:10:26.047Z,9.13
2022-12-01T04:12:59.147Z,11.52
2022-12-01T04:15:27.759Z,7.63
2022-12-01T04:17:55.086Z,7.63
2022-12-01T04:20:22.958Z,13.35
2022-12-01T04:22:50.323Z,10.63
2022-12-01T04:25:17.614Z,13.05
2022-12-01T04:27:44.876Z,11.20
2022-12-01T04:30:12.925Z,9.25
2022-12-01T04:32:42.906Z,8.25
2022-12-01T04:35:12.914Z,7.50
2022-12-01T04:37:41.266Z,4.47
2022-12-01T04:40:09.633Z,8.20
2022-12-01T04:42:36.899Z,6.10
2022-12-01T04:45:04.782Z,8.40
2022-12-01T04:47:32.133Z,8.75
2022-12-01T04:49:59.405Z,4.63
2022-12-01T04:52:30.652Z,5.43
2022-12-01T05:02:22.503Z,7.20
2022-12-01T05:04:49.812Z,12.80
2022-12-01T05:07:18.244Z,8.45
2022-12-01T05:09:45.456Z,9.75
2022-12-01T05:12:12.734Z,9.50
2022-12-01T05:14:40.036Z,10.88
2022-12-01T05:17:07.246Z,9.85
2022-12-01T05:19:52.936Z,7.97
2022-12-01T05:22:36.415Z,10.93
2022-12-01T05:25:07.865Z,7.13
2022-12-01T05:27:35.216Z,6.15
2022-12-01T05:30:02.417Z,7.07
2022-12-01T05:32:29.716Z,8.18
2022-12-01T05:34:56.925Z,9.52
2022-12-01T05:37:24.107Z,9.27
2022-12-01T05:39:51.496Z,8.90
2022-12-01T05:42:18.828Z,10.43
2022-12-01T05:44:46.040Z,8.38
2022-12-01T05:47:13.196Z,11.27
2022-12-01T05:49:40.996Z,7.70
2022-12-01T05:52:08.231Z,11.10
2022-12-01T05:54:35.948Z,10.32
2022-12-01T05:57:03.268Z,9.15
2022-12-01T05:59:30.488Z,8.63
2022-12-01T06:01:57.775Z,9.38
2022-12-01T06:04:25.080Z,8.95
2022-12-01T06:06:52.455Z,10.20
2022-12-01T06:09:19.689Z,10.85
2022-12-01T06:11:51.205Z,8.93
2022-12-01T06:14:19.741Z,9.88
2022-12-01T06:16:47.045Z,9.45
2022-12-01T06:19:14.343Z,8.65
2022-12-01T06:21:41.672Z,9.07
2022-12-01T06:24:10.498Z,11.32
2022-12-01T06:26:38.156Z,8.55
2022-12-01T06:29:05.390Z,14.00
2022-12-01T06:31:32.671Z,7.88
2022-12-01T06:33:59.994Z,6.28
2022-12-01T06:36:27.483Z,8.60
2022-12-01T06:38:54.766Z,7.93
2022-12-01T06:41:22.061Z,7.13
2022-12-01T06:43:49.304Z,7.10
2022-12-01T06:46:16.755Z,6.97
2022-12-01T06:48:44.261Z,10.48
2022-12-01T06:51:11.541Z,6.78
2022-12-01T06:53:38.742Z,11.80
2022-12-01T06:56:06.519Z,8.32
2022-12-01T06:58:34.811Z,9.10
2022-12-01T07:01:09.928Z,7.75
2022-12-01T07:03:37.475Z,8.38
2022-12-01T07:06:05.234Z,8.48
2022-12-01T07:08:33.466Z,9.13
2022-12-01T07:11:07.624Z,7.90
2022-12-01T07:13:35.703Z,6.65
2022-12-01T07:16:03.895Z,6.47
2022-12-01T07:18:33.483Z,6.70
2022-12-01T07:21:08.209Z,10.10
2022-12-01T07:23:36.418Z,8.43
2022-12-01T07:26:09.911Z,7.93
2022-12-01T07:28:37.185Z,8.45
2022-12-01T07:31:15.284Z,6.82
2022-12-01T07:33:42.803Z,8.30
2022-12-01T07:36:12.578Z,6.65
2022-12-01T07:38:40.574Z,6.00
2022-12-01T07:41:14.603Z,6.50
2022-12-01T07:43:42.477Z,7.47
2022-12-01T07:46:21.790Z,8.45
2022-12-01T07:51:18.043Z,6.60
2022-12-01T07:56:14.574Z,6.72
2022-12-01T08:01:14.297Z,8.98
2022-12-01T08:03:42.574Z,6.65
2022-12-01T08:06:11.679Z,5.60
2022-12-01T08:08:41.244Z,6.13
2022-12-01T08:11:20.574Z,7.82
2022-12-01T08:13:48.681Z,6.88
2022-12-01T08:16:22.557Z,7.20
2022-12-01T08:18:50.839Z,6.10
2022-12-01T08:21:22.105Z,6.20
2022-12-01T08:23:53.260Z,6.47
2022-12-01T08:26:21.729Z,5.82
2022-12-01T08:28:50.016Z,6.57
2022-12-01T08:31:29.572Z,7.05
2022-12-01T08:33:57.520Z,8.77
2022-12-01T08:36:25.928Z,5.63
2022-12-01T08:38:56.000Z,5.45
2022-12-01T08:41:24.774Z,5.78
2022-12-01T08:44:00.724Z,6.25
2022-12-01T08:46:33.466Z,7.13
2022-12-01T08:49:01.711Z,6.15
2022-12-01T08:51:29.294Z,7.53
2022-12-01T08:56:39.226Z,5.80
2022-12-01T08:59:07.675Z,5.80
2022-12-01T09:01:52.305Z,5.35
2022-12-01T09:04:25.797Z,5.53
2022-12-01T09:06:56.426Z,6.82
2022-12-01T09:09:29.285Z,5.75
2022-12-01T09:11:57.396Z,7.95
2022-12-01T09:14:24.677Z,6.63
2022-12-01T09:16:51.890Z,6.55
2022-12-01T09:19:24.780Z,7.00
2022-12-01T09:21:53.332Z,6.95
2022-12-01T09:24:20.703Z,5.13
2022-12-01T09:29:16.988Z,6.43
2022-12-01T09:31:44.408Z,6.85
2022-12-01T09:34:17.255Z,7.32
2022-12-01T09:36:45.143Z,9.32
2022-12-01T09:39:17.188Z,6.55
2022-12-01T09:41:55.943Z,9.68
2022-12-01T09:44:28.943Z,7.82
2022-12-01T09:47:24.461Z,10.80
2022-12-01T09:50:15.595Z,11.35
2022-12-01T09:52:50.550Z,8.43
2022-12-01T09:55:21.327Z,12.68
2022-12-01T09:57:52.694Z,10.43
2022-12-01T10:00:30.539Z,11.82
2022-12-01T10:03:19.499Z,8.32
2022-12-01T10:09:30.658Z,10.25
2022-12-01T10:12:14.912Z,6.10
2022-12-01T10:14:45.213Z,7.07
2022-12-01T10:17:42.752Z,7.80
2022-12-01T10:20:24.443Z,7.32
2022-12-01T10:23:15.554Z,6.82
2022-12-01T10:25:54.738Z,6.55
2022-12-01T10:28:49.783Z,8.35
2022-12-01T10:31:29.319Z,6.88
2022-12-01T10:34:17.824Z,8.10
2022-12-01T10:36:45.544Z,12.43
2022-12-01T10:39:43.790Z,7.10
2022-12-01T10:42:27.973Z,13.73
2022-12-01T10:45:04.057Z,8.50
2022-12-01T10:47:32.242Z,9.57
2022-12-01T10:49:59.748Z,9.80
2022-12-01T10:52:38.513Z,9.32
2022-12-01T10:55:33.021Z,8.63
2022-12-01T10:58:09.396Z,11.75
2022-12-01T11:00:59.246Z,7.57
2022-12-01T11:03:34.981Z,8.75
2022-12-01T11:06:06.076Z,6.32
2022-12-01T11:08:56.186Z,9.60
2022-12-01T11:11:52.393Z,16.88
2022-12-01T11:14:25.392Z,9.15
2022-12-01T11:16:54.212Z,11.82
2022-12-01T11:19:32.876Z,7.78
2022-12-01T11:22:13.078Z,9.15
2022-12-01T11:24:43.365Z,8.55
2022-12-01T11:27:24.794Z,15.90
2022-12-01T11:30:03.045Z,12.18
2022-12-01T11:32:36.707Z,11.05
2022-12-01T11:35:22.486Z,9.38
2022-12-01T11:38:28.363Z,8.23
2022-12-01T11:40:55.224Z,8.95
2022-12-01T11:43:37.404Z,7.25
2022-12-01T11:46:09.960Z,7.20
2022-12-01T11:48:37.196Z,8.15
2022-12-01T11:51:37.811Z,12.23
2022-12-01T11:54:22.115Z,10.75
2022-12-01T11:59:39.638Z,11.68
2022-12-01T12:02:35.070Z,9.52
2022-12-01T12:05:26.336Z,11.77
2022-12-01T12:08:13.824Z,13.57
2022-12-01T12:11:17.165Z,13.48
2022-12-01T12:14:06.865Z,9.23
2022-12-01T12:16:53.683Z,167.48
2022-12-01T12:19:52.461Z,13.52
2022-12-01T12:22:31.947Z,18.80
2022-12-01T12:25:06.564Z,8.07
2022-12-01T12:27:33.634Z,15.38
2022-12-01T12:30:28.405Z,9.13
2022-12-01T12:33:56.376Z,11.65
2022-12-01T12:36:52.132Z,8.93
2022-12-01T12:39:32.603Z,22.17
2022-12-01T12:42:04.220Z,7.68
2022-12-01T12:44:47.920Z,9.45
2022-12-01T12:47:41.974Z,14.13
2022-12-01T12:50:24.471Z,7.38
2022-12-01T12:53:00.253Z,19.55
2022-12-01T12:55:44.613Z,23.05
2022-12-01T12:58:20.157Z,18.50
2022-12-01T13:00:57.661Z,16.13
2022-12-01T13:03:59.446Z,23.67
2022-12-01T13:06:41.993Z,10.05
2022-12-01T13:09:28.978Z,9.23
2022-12-01T13:12:04.845Z,65.35
2022-12-01T13:14:41.108Z,10.75
2022-12-01T13:17:27.000Z,11.98
2022-12-01T13:19:54.218Z,13.70
2022-12-01T13:22:35.966Z,8.35
2022-12-01T13:25:04.553Z,9.82
2022-12-01T13:27:43.980Z,16.13
2022-12-01T13:30:22.998Z,20.63
2022-12-01T13:33:05.331Z,13.50
2022-12-01T13:35:40.200Z,13.15
2022-12-01T13:38:33.867Z,8.02
2022-12-01T13:41:20.707Z,22.02
2022-12-01T13:44:04.633Z,21.65
2022-12-01T13:46:50.855Z,10.20
2022-12-01T13:49:45.156Z,14.27
2022-12-01T13:52:30.485Z,15.40
2022-12-01T13:55:12.982Z,12.18
2022-12-01T13:58:13.343Z,12.32
2022-12-01T14:00:43.262Z,8.32
2022-12-01T14:03:39.155Z,10.75
2022-12-01T14:06:20.561Z,14.13
2022-12-01T14:08:52.177Z,12.82
2022-12-01T14:11:26.653Z,11.75
2022-12-01T14:14:03.816Z,11.05
2022-12-01T14:17:04.396Z,10.38
2022-12-01T14:19:46.420Z,12.65
2022-12-01T14:22:34.831Z,14.77
2022-12-01T14:25:21.045Z,11.63
2022-12-01T14:27:52.914Z,11.60
2022-12-01T14:30:48.018Z,10.05
2022-12-01T14:33:58.940Z,14.18
2022-12-01T14:36:44.502Z,11.98
2022-12-01T14:39:32.346Z,11.40
2022-12-01T14:43:09.954Z,10.80
2022-12-01T14:45:57.652Z,11.27
2022-12-01T14:48:39.042Z,13.23
2022-12-01T14:51:27.576Z,14.23
2022-12-01T14:53:57.373Z,16.92
2022-12-01T14:56:26.763Z,14.55
2022-12-01T14:59:01.462Z,13.63
2022-12-01T15:01:36.902Z,13.63
2022-12-01T15:04:06.692Z,14.05
2022-12-01T15:06:38.620Z,19.45
2022-12-01T15:09:33.368Z,61.05
2022-12-01T15:12:09.147Z,34.13
2022-12-01T15:14:56.120Z,33.10
2022-12-01T15:17:37.143Z,33.72
2022-12-01T15:20:41.317Z,31.17
2022-12-01T15:23:17.271Z,25.30
2022-12-01T15:25:48.258Z,23.70
2022-12-01T15:28:28.904Z,28.80
2022-12-01T15:30:56.956Z,23.75
2022-12-01T15:33:37.393Z,25.17
2022-12-01T15:36:08.008Z,21.20
2022-12-01T15:38:38.272Z,25.42
2022-12-01T15:44:05.599Z,26.95
2022-12-01T15:46:34.764Z,23.38
2022-12-01T15:49:33.092Z,22.15
2022-12-01T15:52:12.817Z,16.27
2022-12-01T15:54:40.355Z,15.73
2022-12-01T15:57:07.903Z,15.27
2022-12-01T15:59:44.813Z,15.98
2022-12-01T16:02:27.328Z,27.40
2022-12-01T16:05:17.572Z,26.98
2022-12-01T16:10:37.531Z,24.30
2022-12-01T16:13:35.497Z,35.15
2022-12-01T16:16:45.440Z,27.80
2022-12-01T16:19:12.586Z,29.98
2022-12-01T16:21:48.451Z,28.88
2022-12-01T16:24:31.482Z,29.58
2022-12-01T16:27:04.328Z,28.15
2022-12-01T16:29:48.130Z,29.20
2022-12-01T16:32:40.804Z,29.02
2022-12-01T16:35:27.248Z,35.05
2022-12-01T16:37:55.577Z,38.40
2022-12-01T16:40:23.724Z,38.33
2022-12-01T16:42:51.129Z,37.63
2022-12-01T16:45:26.857Z,34.88
2022-12-01T16:47:54.090Z,84.97
2022-12-01T16:50:22.945Z,219.65
2022-12-01T16:52:50.234Z,133.38
2022-12-01T16:55:33.849Z,79.57
2022-12-01T16:58:00.983Z,53.42
2022-12-01T17:00:29.550Z,42.42
2022-12-01T17:02:57.636Z,39.38
2022-12-01T17:05:25.058Z,35.70
2022-12-01T17:07:52.773Z,39.67
2022-12-01T17:10:23.234Z,38.15
2022-12-01T17:12:51.403Z,38.85
2022-12-01T17:15:18.777Z,44.33
2022-12-01T17:17:45.936Z,51.92
2022-12-01T17:20:14.409Z,50.95
2022-12-01T17:22:41.637Z,59.50
2022-12-01T17:25:10.084Z,65.78
2022-12-01T17:27:39.224Z,64.18
2022-12-01T17:30:08.259Z,62.38
2022-12-01T17:32:35.634Z,69.03
2022-12-01T17:35:03.608Z,67.95
2022-12-01T17:37:30.874Z,56.60
2022-12-01T17:39:58.066Z,66.07
2022-12-01T17:42:25.251Z,61.75
2022-12-01T17:44:52.561Z,57.10
2022-12-01T17:47:19.836Z,56.25
2022-12-01T17:49:47.115Z,62.47
2022-12-01T17:52:14.542Z,41.25
2022-12-01T17:54:41.764Z,45.58
2022-12-01T17:57:08.939Z,42.58
2022-12-01T17:59:37.159Z,35.72
2022-12-01T18:02:05.015Z,31.50
2022-12-01T18:04:33.263Z,38.83
2022-12-01T18:07:01.062Z,42.50
2022-12-01T18:11:57.272Z,43.53
2022-12-01T18:14:25.650Z,41.08
2022-12-01T18:16:53.481Z,43.33
2022-12-01T18:19:20.800Z,41.03
2022-12-01T18:21:48.336Z,43.80
2022-12-01T18:24:15.483Z,37.17
2022-12-01T18:26:43.093Z,30.90
2022-12-01T18:31:45.021Z,24.13
2022-12-01T18:34:12.966Z,30.88
2022-12-01T18:36:42.143Z,30.38
2022-12-01T18:39:11.240Z,28.60
2022-12-01T18:41:39.727Z,28.13
2022-12-01T18:44:08.946Z,25.33
2022-12-01T18:46:36.479Z,42.45
2022-12-01T18:49:05.205Z,50.55
2022-12-01T18:51:36.220Z,43.50
2022-12-01T18:54:07.077Z,41.13
2022-12-01T18:56:35.875Z,49.47
2022-12-01T18:59:07.161Z,46.17
2022-12-01T19:01:41.322Z,42.53
2022-12-01T19:04:10.676Z,43.20
2022-12-01T19:06:58.149Z,60.95
2022-12-01T19:09:25.381Z,43.13
2022-12-01T19:11:59.838Z,37.33
2022-12-01T19:14:29.137Z,35.88
2022-12-01T19:16:59.555Z,37.67
2022-12-01T19:19:26.896Z,38.00
2022-12-01T19:21:54.366Z,41.92
2022-12-01T19:24:21.724Z,42.25
2022-12-01T19:26:49.521Z,31.25
2022-12-01T19:29:16.827Z,30.27
2022-12-01T19:31:44.407Z,34.30
2022-12-01T19:36:38.720Z,34.60
2022-12-01T19:39:07.684Z,58.58
2022-12-01T19:41:35.889Z,41.80
2022-12-01T19:44:03.169Z,56.70
2022-12-01T19:46:30.454Z,29.17
2022-12-01T19:49:00.845Z,29.17
2022-12-01T19:51:37.380Z,18.60
2022-12-01T19:54:19.799Z,31.67
2022-12-01T19:56:47.771Z,29.30
2022-12-01T19:59:15.578Z,22.95
2022-12-01T20:01:44.160Z,22.40
2022-12-01T20:04:11.803Z,26.05
2022-12-01T20:06:39.339Z,27.58
2022-12-01T20:09:08.308Z,33.92
2022-12-01T20:11:37.033Z,54.25
2022-12-01T20:14:07.749Z,100.47
2022-12-01T20:16:35.703Z,90.22
2022-12-01T20:19:05.721Z,77.20
2022-12-01T20:21:39.573Z,43.08
2022-12-01T20:24:10.665Z,37.85
2022-12-01T20:26:46.154Z,53.10
2022-12-01T20:29:23.514Z,41.53
2022-12-01T20:31:53.072Z,25.88
2022-12-01T20:34:29.539Z,17.83
2022-12-01T20:36:57.850Z,23.20
2022-12-01T20:39:25.980Z,37.13
2022-12-01T20:41:53.528Z,34.67
2022-12-01T20:44:21.905Z,29.27
2022-12-01T20:46:49.430Z,26.92
2022-12-01T20:49:19.166Z,26.83
2022-12-01T20:51:47.276Z,25.33
2022-12-01T20:54:27.967Z,23.42
2022-12-01T20:56:56.987Z,31.83
2022-12-01T20:59:24.703Z,33.75
2022-12-01T21:04:19.307Z,24.38
2022-12-01T21:06:47.421Z,20.63
2022-12-01T21:09:15.094Z,20.88
2022-12-01T21:14:38.249Z,19.48
2022-12-01T21:17:30.336Z,22.15
2022-12-01T21:20:32.252Z,23.13
2022-12-01T21:23:18.631Z,25.17
2022-12-01T21:25:48.056Z,21.98
2022-12-01T21:28:22.497Z,23.45
2022-12-01T21:31:03.149Z,23.08
2022-12-01T21:33:36.268Z,19.98
2022-12-01T21:36:20.377Z,19.20
2022-12-01T21:38:54.066Z,31.08
2022-12-01T21:41:28.401Z,21.65
2022-12-01T21:44:08.053Z,23.52
2022-12-01T21:46:36.042Z,21.42
2022-12-01T21:49:11.406Z,34.78
2022-12-01T21:51:38.890Z,21.05
2022-12-01T21:54:14.344Z,32.83
2022-12-01T21:56:42.649Z,27.33
2022-12-01T21:59:23.580Z,26.90
2022-12-01T22:01:57.048Z,27.92
2022-12-01T22:04:30.672Z,41.55
2022-12-01T22:06:58.671Z,29.67
2022-12-01T22:09:33.462Z,23.70
2022-12-01T22:12:21.712Z,19.95
2022-12-01T22:14:49.902Z,21.88
2022-12-01T22:17:21.532Z,20.85
2022-12-01T22:20:02.555Z,26.02
2022-12-01T22:22:32.785Z,22.55
2022-12-01T22:25:26.679Z,45.88
2022-12-01T22:27:54.696Z,21.88
2022-12-01T22:30:24.485Z,18.00
2022-12-01T22:33:03.846Z,23.13
2022-12-01T22:36:00.844Z,21.13
2022-12-01T22:38:38.256Z,20.60
2022-12-01T22:41:14.981Z,22.55
2022-12-01T22:43:51.539Z,18.83
2022-12-01T22:46:31.588Z,21.02
2022-12-01T22:49:19.575Z,17.70
2022-12-01T22:52:12.842Z,23.20
2022-12-01T22:54:49.390Z,17.55
2022-12-01T22:57:23.208Z,25.85
2022-12-01T22:59:50.755Z,27.35
2022-12-01T23:02:52.332Z,18.25
2022-12-01T23:05:30.103Z,22.20
2022-12-01T23:07:57.917Z,18.23
2022-12-01T23:10:34.033Z,23.35
2022-12-01T23:13:17.496Z,20.75
2022-12-01T23:15:54.321Z,21.48
2022-12-01T23:18:34.309Z,19.77
2022-12-01T23:21:02.430Z,19.70
2022-12-01T23:23:36.787Z,18.42
2022-12-01T23:26:08.370Z,16.70
2022-12-01T23:28:39.280Z,16.02
2022-12-01T23:31:06.762Z,19.55
2022-12-01T23:33:35.058Z,23.00
2022-12-01T23:36:16.537Z,24.20
2022-12-01T23:38:47.599Z,22.02
2022-12-01T23:41:25.243Z,17.77
2022-12-01T23:43:56.002Z,26.83
2022-12-01T23:46:28.233Z,28.63
2022-12-01T23:49:12.844Z,26.08
2022-12-01T23:51:48.032Z,17.65
2022-12-01T23:54:30.951Z,19.83
2022-12-01T23:57:23.430Z,19.40
